Time;durP1;ratioP1;P1;durP2;ratioP2;P2;SDS_P1;SDS_P2;PMS_P1;PMS_P2;Temp;Humidity;BMP_temperature;BMP_pressure;BME280_temperature;BME280_humidity;BME280_pressure;Samples;Min_cycle;Max_cycle;Signal;HPM_P1;HPM_P2
2023/07/18 00:00:59;;;;;;;9.07;6.07;;;17.50;65.10;;;;;;5075187;28;20447;-74
2023/07/18 00:03:25;;;;;;;13.13;6.05;;;17.40;64.90;;;;;;5075158;28;20096;-73
2023/07/18 00:05:51;;;;;;;11.00;5.40;;;17.40;65.00;;;;;;5074658;28;20530;-74
2023/07/18 00:08:16;;;;;;;11.27;4.75;;;17.30;65.40;;;;;;5074960;28;20021;-74
2023/07/18 00:10:42;;;;;;;9.48;5.35;;;17.20;65.70;;;;;;5074893;28;20048;-74
2023/07/18 00:13:08;;;;;;;8.50;5.20;;;17.10;65.40;;;;;;5074882;28;20070;-74
2023/07/18 00:15:33;;;;;;;7.75;5.40;;;17.00;65.20;;;;;;5074947;28;20115;-74
2023/07/18 00:18:01;;;;;;;8.77;5.15;;;17.00;64.80;;;;;;5073532;28;20027;-74
2023/07/18 00:20:27;;;;;;;5.93;4.57;;;17.10;65.10;;;;;;5073766;28;20037;-74
2023/07/18 00:22:53;;;;;;;5.00;4.25;;;17.10;64.70;;;;;;5074799;28;20020;-74
2023/07/18 00:25:20;;;;;;;7.22;4.82;;;17.10;64.70;;;;;;5074822;28;20388;-73
2023/07/18 00:27:50;;;;;;;8.02;4.38;;;17.30;65.10;;;;;;5074718;28;20021;-74
2023/07/18 00:30:17;;;;;;;8.57;4.75;;;17.40;62.70;;;;;;5074649;28;20070;-74
2023/07/18 00:32:47;;;;;;;6.70;4.10;;;17.30;62.90;;;;;;5074591;28;20020;-73
2023/07/18 00:35:14;;;;;;;6.55;4.35;;;17.20;63.10;;;;;;5074586;28;20537;-73
2023/07/18 00:37:40;;;;;;;7.13;4.25;;;17.10;64.40;;;;;;5074528;28;20075;-73
2023/07/18 00:40:11;;;;;;;8.73;4.40;;;17.20;63.20;;;;;;5074555;28;20465;-73
2023/07/18 00:42:37;;;;;;;9.25;4.28;;;17.30;63.10;;;;;;5074203;28;20024;-73
2023/07/18 00:45:05;;;;;;;8.48;3.90;;;17.30;62.40;;;;;;5074343;28;20025;-73
2023/07/18 00:47:30;;;;;;;5.72;3.97;;;17.20;62.50;;;;;;5074353;28;20024;-74
2023/07/18 00:49:56;;;;;;;6.95;3.42;;;17.10;62.80;;;;;;5074280;28;20539;-73
2023/07/18 00:52:22;;;;;;;5.10;3.80;;;17.00;62.70;;;;;;5074268;28;20495;-73
2023/07/18 00:54:48;;;;;;;10.95;3.88;;;16.90;63.00;;;;;;5074195;28;20017;-74
2023/07/18 00:57:13;;;;;;;7.80;3.80;;;16.80;63.20;;;;;;5073532;28;20568;-74
2023/07/18 00:59:39;;;;;;;5.57;3.90;;;16.80;63.10;;;;;;5073895;28;20027;-73
2023/07/18 01:02:09;;;;;;;6.88;3.80;;;16.80;63.20;;;;;;5073778;28;20031;-74
2023/07/18 01:04:36;;;;;;;6.15;3.85;;;16.70;63.20;;;;;;5072691;28;20365;-73
2023/07/18 01:07:04;;;;;;;5.07;2.90;;;16.60;63.30;;;;;;5074029;28;20464;-74
2023/07/18 01:09:31;;;;;;;6.53;4.07;;;16.60;63.30;;;;;;5074005;28;20028;-75
2023/07/18 01:11:57;;;;;;;7.75;3.40;;;16.70;63.50;;;;;;5073888;28;20033;-74
2023/07/18 01:14:25;;;;;;;5.25;3.35;;;16.80;62.90;;;;;;5073811;28;20028;-74
2023/07/18 01:16:54;;;;;;;7.70;3.17;;;16.80;62.10;;;;;;5073730;28;20491;-74
2023/07/18 01:19:20;;;;;;;5.55;3.47;;;16.80;61.50;;;;;;5073830;28;20113;-74
2023/07/18 01:21:46;;;;;;;6.13;3.67;;;16.80;62.20;;;;;;5073545;28;20040;-74
2023/07/18 01:24:12;;;;;;;6.80;3.10;;;16.80;62.10;;;;;;5073720;28;20031;-76
2023/07/18 01:26:37;;;;;;;5.65;3.35;;;16.90;61.40;;;;;;5072181;28;20031;-75
2023/07/18 01:29:03;;;;;;;7.07;3.55;;;16.80;62.00;;;;;;5073415;28;20029;-73
2023/07/18 01:31:30;;;;;;;7.68;3.92;;;16.90;61.60;;;;;;5073209;28;20031;-75
2023/07/18 01:33:56;;;;;;;7.07;3.03;;;16.80;61.70;;;;;;5073153;28;20012;-75
2023/07/18 01:36:22;;;;;;;5.57;3.17;;;16.90;61.60;;;;;;5073193;28;20044;-74
2023/07/18 01:38:48;;;;;;;7.07;3.25;;;17.00;60.70;;;;;;5073428;28;20025;-75
2023/07/18 01:41:13;;;;;;;5.40;3.00;;;16.90;61.10;;;;;;5073385;28;20032;-74
2023/07/18 01:43:39;;;;;;;8.73;3.17;;;16.90;60.90;;;;;;5073329;28;20077;-75
2023/07/18 01:46:04;;;;;;;7.18;3.33;;;16.90;61.10;;;;;;5073245;28;20078;-74
2023/07/18 01:48:30;;;;;;;6.50;3.55;;;16.80;60.70;;;;;;5073353;28;20026;-73
2023/07/18 01:50:57;;;;;;;5.45;2.38;;;16.90;60.40;;;;;;5073149;28;20035;-74
2023/07/18 01:53:22;;;;;;;6.13;2.80;;;16.90;60.40;;;;;;5073165;28;20020;-74
2023/07/18 01:55:48;;;;;;;6.40;3.00;;;16.80;61.00;;;;;;5072961;28;20024;-74
2023/07/18 01:58:13;;;;;;;5.72;2.70;;;16.70;60.80;;;;;;5073053;28;20029;-73
2023/07/18 02:00:39;;;;;;;7.80;3.03;;;16.70;60.80;;;;;;5072947;28;20056;-74
2023/07/18 02:03:05;;;;;;;5.00;2.50;;;16.80;60.40;;;;;;5073034;28;20028;-74
2023/07/18 02:05:33;;;;;;;3.90;2.72;;;16.80;60.70;;;;;;5073004;28;20020;-74
2023/07/18 02:07:59;;;;;;;5.60;3.00;;;16.60;60.90;;;;;;5072923;28;20392;-74
2023/07/18 02:10:25;;;;;;;6.53;3.30;;;16.40;61.20;;;;;;5072871;28;20032;-74
2023/07/18 02:12:52;;;;;;;8.70;2.75;;;16.30;61.80;;;;;;5073048;28;20017;-74
2023/07/18 02:15:18;;;;;;;6.25;2.92;;;16.30;62.20;;;;;;5072918;28;20111;-74
2023/07/18 02:17:45;;;;;;;6.28;2.92;;;16.10;62.70;;;;;;5072853;28;20020;-74
2023/07/18 02:20:14;;;;;;;6.20;3.00;;;16.10;62.60;;;;;;5072635;28;20091;-74
2023/07/18 02:22:41;;;;;;;5.38;3.17;;;16.10;62.90;;;;;;5072921;28;20119;-73
2023/07/18 02:25:08;;;;;;;9.13;3.00;;;16.20;62.80;;;;;;5071428;28;20451;-73
2023/07/18 02:27:35;;;;;;;5.30;2.63;;;16.20;62.50;;;;;;5072760;28;20028;-73
2023/07/18 02:30:01;;;;;;;4.47;3.00;;;16.20;62.50;;;;;;5072907;28;20016;-74
2023/07/18 02:32:30;;;;;;;3.47;2.83;;;16.20;62.30;;;;;;5072713;28;20067;-73
2023/07/18 02:34:57;;;;;;;7.47;3.28;;;16.10;62.70;;;;;;5072746;28;20109;-73
2023/07/18 02:37:24;;;;;;;8.27;3.22;;;16.10;62.90;;;;;;5072680;28;20040;-75
2023/07/18 02:39:50;;;;;;;5.65;2.97;;;16.10;62.90;;;;;;5072807;28;20033;-75
2023/07/18 02:42:17;;;;;;;5.68;2.83;;;16.00;63.00;;;;;;5072705;28;20103;-73
2023/07/18 02:44:43;;;;;;;6.35;3.00;;;15.90;63.10;;;;;;5074509;28;20445;-74
2023/07/18 02:47:09;;;;;;;4.97;2.85;;;15.90;63.20;;;;;;5076450;28;20082;-73
2023/07/18 02:49:34;;;;;;;4.28;2.60;;;15.80;63.30;;;;;;5092202;28;20481;-73
2023/07/18 02:52:01;;;;;;;6.40;3.10;;;15.70;63.80;;;;;;5076595;28;20052;-74
2023/07/18 02:54:26;;;;;;;2.47;2.08;;;15.70;63.80;;;;;;5076663;28;20021;-73
2023/07/18 02:56:52;;;;;;;7.40;2.85;;;15.70;63.80;;;;;;5076459;28;20032;-74
2023/07/18 02:59:20;;;;;;;3.80;2.55;;;15.70;63.80;;;;;;5075006;28;20031;-74
2023/07/18 03:01:49;;;;;;;4.78;2.63;;;15.80;63.90;;;;;;5076247;28;20027;-74
2023/07/18 03:04:16;;;;;;;5.90;2.50;;;15.90;63.40;;;;;;5076277;28;20028;-74
2023/07/18 03:06:41;;;;;;;4.38;2.58;;;16.20;62.90;;;;;;5076207;28;20056;-74
2023/07/18 03:09:07;;;;;;;4.85;2.70;;;16.30;61.90;;;;;;5076282;28;20049;-74
2023/07/18 03:11:32;;;;;;;8.73;2.72;;;16.30;61.80;;;;;;5076145;28;20078;-74
2023/07/18 03:13:58;;;;;;;5.30;2.90;;;16.30;61.60;;;;;;5076080;28;20020;-74
2023/07/18 03:16:23;;;;;;;5.55;2.67;;;16.20;61.80;;;;;;5091598;28;20032;-74
2023/07/18 03:18:49;;;;;;;3.90;2.55;;;16.20;61.80;;;;;;5076136;28;20116;-74
2023/07/18 03:21:16;;;;;;;5.28;2.63;;;16.00;62.20;;;;;;5074447;28;20105;-74
2023/07/18 03:23:42;;;;;;;4.93;2.70;;;15.90;62.90;;;;;;5075855;28;20017;-74
2023/07/18 03:26:07;;;;;;;4.32;2.45;;;15.70;63.20;;;;;;5075990;28;20075;-74
2023/07/18 03:28:33;;;;;;;4.38;2.45;;;15.70;63.40;;;;;;5074467;28;20056;-73
2023/07/18 03:30:58;;;;;;;4.22;2.50;;;15.70;63.60;;;;;;5075796;28;20086;-74
2023/07/18 03:33:24;;;;;;;5.00;2.33;;;15.70;63.80;;;;;;5075754;28;20060;-75
2023/07/18 03:35:50;;;;;;;4.55;2.67;;;15.60;63.80;;;;;;5075535;28;20071;-73
2023/07/18 03:38:15;;;;;;;4.80;2.78;;;15.60;63.50;;;;;;5075609;28;20031;-74
2023/07/18 03:40:41;;;;;;;3.50;2.40;;;15.50;63.80;;;;;;5075662;28;20033;-73
2023/07/18 03:43:07;;;;;;;5.82;2.90;;;15.60;63.60;;;;;;5075433;28;20024;-73
2023/07/18 03:45:33;;;;;;;10.38;2.92;;;15.60;63.60;;;;;;5075327;28;20055;-73
2023/07/18 03:47:59;;;;;;;6.20;2.83;;;15.70;63.40;;;;;;5075389;28;20484;-74
2023/07/18 03:50:25;;;;;;;6.65;3.10;;;15.80;63.00;;;;;;5075165;28;20025;-74
2023/07/18 03:52:50;;;;;;;4.93;2.60;;;15.80;63.10;;;;;;5075376;28;20025;-74
2023/07/18 03:55:16;;;;;;;9.88;2.80;;;15.80;63.10;;;;;;5075019;28;20380;-74
2023/07/18 03:57:42;;;;;;;6.90;2.50;;;15.90;62.70;;;;;;5075182;28;20103;-75
2023/07/18 04:00:13;;;;;;;5.45;2.42;;;15.90;62.30;;;;;;5075261;28;20021;-75
2023/07/18 04:02:39;;;;;;;7.30;2.58;;;15.80;62.40;;;;;;5073863;28;20032;-75
2023/07/18 04:05:05;;;;;;;4.72;2.55;;;15.70;62.50;;;;;;5074999;28;20125;-75
2023/07/18 04:07:31;;;;;;;7.70;2.70;;;15.70;62.60;;;;;;5075112;28;20500;-75
2023/07/18 04:09:57;;;;;;;5.00;2.45;;;15.80;62.50;;;;;;5075132;28;20024;-75
2023/07/18 04:12:23;;;;;;;4.68;2.22;;;15.80;62.70;;;;;;5075038;28;20086;-75
2023/07/18 04:14:48;;;;;;;5.38;2.80;;;15.80;62.40;;;;;;5074892;28;20028;-75
2023/07/18 04:17:14;;;;;;;7.47;2.58;;;15.80;62.30;;;;;;5074935;28;20097;-75
2023/07/18 04:19:40;;;;;;;4.93;2.67;;;15.80;62.00;;;;;;5074719;28;20031;-75
2023/07/18 04:22:05;;;;;;;5.40;2.55;;;15.80;62.10;;;;;;5074684;28;20052;-75
2023/07/18 04:24:31;;;;;;;5.80;2.67;;;15.80;62.30;;;;;;5074685;28;20035;-75
2023/07/18 04:26:57;;;;;;;6.05;2.55;;;15.80;62.30;;;;;;5074459;28;20102;-75
2023/07/18 04:29:24;;;;;;;5.45;2.50;;;15.90;61.80;;;;;;5074662;28;20542;-76
2023/07/18 04:31:49;;;;;;;6.43;2.35;;;15.90;62.90;;;;;;5074815;28;20052;-74
2023/07/18 04:34:15;;;;;;;5.95;2.78;;;15.90;61.70;;;;;;5074817;28;20048;-74
2023/07/18 04:36:42;;;;;;;4.32;2.22;;;15.80;62.20;;;;;;5073322;28;20473;-73
2023/07/18 04:39:08;;;;;;;4.72;2.70;;;15.70;62.20;;;;;;5074693;28;20019;-74
2023/07/18 04:41:33;;;;;;;8.82;2.90;;;15.70;62.40;;;;;;5074577;28;20029;-74
2023/07/18 04:43:59;;;;;;;5.22;2.30;;;15.70;62.50;;;;;;5074445;28;20025;-74
2023/07/18 04:46:25;;;;;;;6.82;2.40;;;15.80;61.80;;;;;;5074536;28;20028;-74
2023/07/18 04:48:51;;;;;;;4.35;2.40;;;15.90;61.50;;;;;;5074169;28;20447;-75
2023/07/18 04:51:17;;;;;;;6.22;2.20;;;15.90;61.30;;;;;;5074214;28;20024;-74
2023/07/18 04:53:42;;;;;;;7.18;2.03;;;16.10;61.20;;;;;;5075302;28;20035;-74
2023/07/18 04:56:08;;;;;;;6.35;2.72;;;16.20;61.00;;;;;;5074063;28;20376;-73
2023/07/18 04:58:34;;;;;;;7.45;2.55;;;16.20;60.90;;;;;;5074213;28;20028;-73
2023/07/18 05:00:59;;;;;;;4.85;2.28;;;16.30;60.50;;;;;;5074120;28;20471;-73
2023/07/18 05:03:26;;;;;;;4.60;2.08;;;16.40;60.20;;;;;;5073946;28;20465;-74
2023/07/18 05:05:52;;;;;;;6.53;2.10;;;16.50;59.90;;;;;;5078329;28;20028;-74
2023/07/18 05:08:18;;;;;;;8.15;2.30;;;16.60;59.70;;;;;;5073199;28;20028;-74
2023/07/18 05:10:44;;;;;;;4.70;2.65;;;16.60;59.70;;;;;;5073761;28;20028;-74
2023/07/18 05:13:10;;;;;;;4.85;2.20;;;16.60;59.30;;;;;;5073622;28;20040;-75
2023/07/18 05:15:36;;;;;;;8.35;2.17;;;16.80;59.10;;;;;;5073647;28;20025;-73
2023/07/18 05:18:02;;;;;;;5.28;2.35;;;16.90;58.40;;;;;;5073915;28;20474;-74
2023/07/18 05:20:28;;;;;;;5.20;2.30;;;17.10;58.20;;;;;;5073263;28;20033;-74
2023/07/18 05:22:54;;;;;;;6.22;2.13;;;17.20;57.40;;;;;;5073596;28;20476;-74
2023/07/18 05:25:19;;;;;;;6.30;2.30;;;17.30;57.10;;;;;;5073570;28;20123;-73
2023/07/18 05:27:45;;;;;;;3.33;2.20;;;17.50;57.10;;;;;;5073581;28;20025;-73
2023/07/18 05:30:16;;;;;;;7.20;2.33;;;17.60;56.60;;;;;;5073509;28;20479;-74
2023/07/18 05:32:42;;;;;;;6.63;2.45;;;17.70;55.50;;;;;;5073250;28;20063;-75
2023/07/18 05:35:13;;;;;;;5.78;2.40;;;17.90;55.40;;;;;;5073348;28;20028;-75
2023/07/18 05:37:43;;;;;;;5.72;2.67;;;18.00;55.30;;;;;;5073092;28;20037;-73
2023/07/18 05:40:10;;;;;;;5.82;2.67;;;18.10;55.30;;;;;;5071636;28;20423;-75
2023/07/18 05:42:36;;;;;;;6.03;2.30;;;18.10;55.40;;;;;;5073099;28;20086;-76
2023/07/18 05:45:02;;;;;;;6.95;2.17;;;18.20;55.20;;;;;;5073150;28;20376;-76
2023/07/18 05:47:28;;;;;;;8.75;2.80;;;18.30;54.90;;;;;;5073730;28;20060;-75
2023/07/18 05:49:54;;;;;;;4.22;1.88;;;18.40;54.30;;;;;;5073089;28;20047;-74
2023/07/18 05:52:20;;;;;;;5.10;2.10;;;18.50;54.90;;;;;;5072775;28;20024;-72
2023/07/18 05:54:45;;;;;;;6.00;2.05;;;18.60;53.70;;;;;;5072901;28;20381;-74
2023/07/18 05:57:11;;;;;;;7.03;2.63;;;18.70;53.60;;;;;;5088531;28;20503;-73
2023/07/18 05:59:36;;;;;;;10.55;2.65;;;18.80;53.40;;;;;;5073070;28;20380;-74
2023/07/18 06:02:03;;;;;;;7.55;2.50;;;18.90;53.50;;;;;;5073138;28;20038;-75
2023/07/18 06:04:29;;;;;;;7.72;2.45;;;19.10;53.00;;;;;;5073077;28;20043;-73
2023/07/18 06:06:55;;;;;;;6.60;2.28;;;19.30;52.40;;;;;;5073051;28;20032;-75
2023/07/18 06:09:21;;;;;;;12.63;2.88;;;19.40;52.00;;;;;;5072925;28;20027;-74
2023/07/18 06:11:47;;;;;;;10.00;2.67;;;19.60;51.80;;;;;;5073087;28;20033;-76
2023/07/18 06:14:12;;;;;;;7.25;2.50;;;19.80;51.10;;;;;;5088184;28;20016;-74
2023/07/18 06:16:38;;;;;;;4.40;2.08;;;20.00;50.70;;;;;;5072861;28;20443;-75
2023/07/18 06:19:04;;;;;;;2.78;1.80;;;20.10;50.30;;;;;;5073376;28;20013;-75
2023/07/18 06:21:30;;;;;;;2.53;1.60;;;20.10;48.90;;;;;;5072948;28;20052;-75
2023/07/18 06:23:56;;;;;;;5.07;1.90;;;20.20;48.30;;;;;;5077059;28;20024;-77
2023/07/18 06:26:22;;;;;;;4.10;2.05;;;20.20;48.30;;;;;;5075097;28;20058;-77
2023/07/18 06:28:49;;;;;;;4.22;1.90;;;20.30;48.80;;;;;;5072971;28;20059;-76
2023/07/18 06:31:14;;;;;;;4.03;1.75;;;20.40;48.80;;;;;;5072942;28;20396;-77
2023/07/18 06:33:40;;;;;;;3.65;1.90;;;20.50;48.90;;;;;;5072727;28;20058;-75
2023/07/18 06:36:06;;;;;;;7.18;2.08;;;20.50;48.80;;;;;;5072731;28;20048;-75
2023/07/18 06:38:32;;;;;;;3.95;1.95;;;20.60;48.60;;;;;;5072615;28;20465;-76
2023/07/18 06:40:58;;;;;;;8.10;1.85;;;20.70;48.60;;;;;;5072741;28;20130;-75
2023/07/18 06:43:24;;;;;;;6.10;2.08;;;20.80;48.10;;;;;;5072600;28;20056;-77
2023/07/18 06:45:50;;;;;;;4.15;1.70;;;20.80;47.60;;;;;;5072600;28;20101;-77
2023/07/18 06:48:17;;;;;;;4.10;1.52;;;20.80;47.50;;;;;;5072578;28;20378;-76
2023/07/18 06:50:45;;;;;;;3.85;1.70;;;20.90;48.80;;;;;;5072711;28;20020;-78
2023/07/18 06:53:11;;;;;;;5.18;2.00;;;20.90;49.60;;;;;;5071369;28;20446;-76
2023/07/18 06:55:36;;;;;;;7.18;2.15;;;20.90;49.60;;;;;;5072550;28;20032;-76
2023/07/18 06:58:02;;;;;;;4.68;2.03;;;20.90;49.80;;;;;;5072755;28;20029;-76
2023/07/18 07:00:28;;;;;;;4.88;2.20;;;21.10;48.60;;;;;;5072142;28;20104;-74
2023/07/18 07:02:54;;;;;;;8.05;2.33;;;21.10;47.60;;;;;;5072415;28;20041;-76
2023/07/18 07:05:20;;;;;;;4.70;2.42;;;21.20;47.90;;;;;;5072423;28;20392;-77
2023/07/18 07:07:47;;;;;;;3.60;2.00;;;21.20;47.60;;;;;;5072338;28;20024;-75
2023/07/18 07:10:12;;;;;;;3.67;1.90;;;21.30;47.20;;;;;;5072447;28;20091;-76
2023/07/18 07:12:38;;;;;;;3.63;1.70;;;21.30;47.20;;;;;;5072600;28;20481;-75
2023/07/18 07:15:04;;;;;;;8.90;2.28;;;21.50;46.90;;;;;;5072503;28;20016;-75
2023/07/18 07:17:30;;;;;;;4.43;2.08;;;21.40;45.70;;;;;;5072018;28;20079;-76
2023/07/18 07:19:55;;;;;;;5.28;2.33;;;21.40;45.90;;;;;;5071794;28;20051;-73
2023/07/18 07:22:21;;;;;;;2.97;2.00;;;21.50;46.00;;;;;;5072213;28;20082;-74
2023/07/18 07:24:48;;;;;;;4.68;1.90;;;21.50;46.00;;;;;;5072419;28;20139;-73
2023/07/18 07:27:13;;;;;;;4.30;1.55;;;21.60;45.70;;;;;;5072114;28;20100;-75
2023/07/18 07:29:39;;;;;;;4.93;1.88;;;21.70;46.00;;;;;;5071940;28;20028;-75
2023/07/18 07:32:06;;;;;;;3.95;2.05;;;21.80;45.80;;;;;;5075652;28;20541;-75
2023/07/18 07:34:32;;;;;;;2.63;1.60;;;21.80;46.30;;;;;;5075206;28;20028;-75
2023/07/18 07:36:58;;;;;;;3.45;2.08;;;22.00;46.30;;;;;;5075436;28;20038;-74
2023/07/18 07:39:23;;;;;;;4.63;1.90;;;22.10;46.70;;;;;;5075558;28;20100;-75
2023/07/18 07:41:49;;;;;;;2.58;1.80;;;22.00;47.10;;;;;;5074697;28;20020;-74
2023/07/18 07:44:14;;;;;;;6.50;2.30;;;22.00;47.40;;;;;;5081631;28;20029;-75
2023/07/18 07:46:40;;;;;;;4.13;2.28;;;22.10;47.60;;;;;;5076275;28;20047;-74
2023/07/18 07:49:06;;;;;;;9.90;2.38;;;22.10;46.90;;;;;;5075573;28;20385;-74
2023/07/18 07:51:32;;;;;;;8.63;2.55;;;22.20;46.50;;;;;;5075161;28;20024;-75
2023/07/18 07:53:58;;;;;;;6.50;2.10;;;22.00;46.50;;;;;;5075247;28;20035;-77
2023/07/18 07:56:24;;;;;;;4.25;2.22;;;21.90;47.40;;;;;;5075068;28;20591;-74
2023/07/18 07:58:50;;;;;;;7.40;2.08;;;22.00;47.20;;;;;;5075134;28;20052;-74
2023/07/18 08:01:15;;;;;;;3.28;1.95;;;22.10;47.70;;;;;;5075496;28;20024;-75
2023/07/18 08:03:41;;;;;;;4.47;2.28;;;22.30;47.60;;;;;;5075221;28;20029;-75
2023/07/18 08:06:07;;;;;;;3.75;2.25;;;22.40;47.00;;;;;;5075292;28;20536;-76
2023/07/18 08:08:33;;;;;;;4.80;2.00;;;22.50;47.20;;;;;;5075192;28;20472;-75
2023/07/18 08:10:58;;;;;;;7.80;2.25;;;22.60;46.30;;;;;;5075037;28;20024;-78
2023/07/18 08:13:24;;;;;;;5.40;2.15;;;22.60;47.40;;;;;;5075101;28;20109;-75
2023/07/18 08:15:50;;;;;;;4.63;2.00;;;22.60;46.50;;;;;;5074968;28;20025;-78
2023/07/18 08:18:16;;;;;;;7.82;2.70;;;22.60;46.20;;;;;;5074962;28;20575;-78
2023/07/18 08:20:41;;;;;;;5.28;2.70;;;22.70;47.00;;;;;;5074676;28;20119;-77
2023/07/18 08:23:07;;;;;;;4.85;2.75;;;22.80;46.70;;;;;;5074826;28;20052;-79
2023/07/18 08:25:33;;;;;;;6.22;2.40;;;22.90;47.20;;;;;;5074742;28;20035;-77
2023/07/18 08:27:58;;;;;;;5.53;2.50;;;23.10;47.10;;;;;;5074857;28;20502;-76
2023/07/18 08:30:24;;;;;;;4.40;2.20;;;23.20;46.50;;;;;;5074852;28;20024;-78
2023/07/18 08:32:49;;;;;;;4.22;2.22;;;23.40;45.70;;;;;;5074806;28;20029;-76
2023/07/18 08:35:15;;;;;;;6.22;2.13;;;23.50;45.50;;;;;;5074897;28;20024;-77
2023/07/18 08:37:41;;;;;;;6.03;2.55;;;23.60;46.50;;;;;;5074701;28;20114;-76
2023/07/18 08:40:09;;;;;;;11.05;2.50;;;23.70;45.70;;;;;;5074403;28;20089;-77
2023/07/18 08:42:37;;;;;;;8.93;3.20;;;23.70;44.20;;;;;;5073423;28;20495;-77
2023/07/18 08:45:03;;;;;;;6.63;2.80;;;23.70;43.90;;;;;;5074316;28;20029;-78
2023/07/18 08:47:29;;;;;;;4.15;2.72;;;23.70;43.30;;;;;;5074666;28;20095;-78
2023/07/18 08:49:55;;;;;;;3.72;2.90;;;23.70;44.10;;;;;;5074552;28;20384;-78
2023/07/18 08:52:21;;;;;;;6.03;2.70;;;23.70;44.70;;;;;;5074538;28;20029;-76
2023/07/18 08:54:47;;;;;;;4.00;2.20;;;23.70;45.50;;;;;;5074530;28;20025;-76
2023/07/18 08:57:13;;;;;;;7.30;3.00;;;24.00;44.90;;;;;;5074150;28;20059;-76
2023/07/18 08:59:44;;;;;;;4.25;2.53;;;24.30;43.90;;;;;;5074469;28;20473;-76
2023/07/18 09:02:09;;;;;;;7.22;2.70;;;24.40;43.00;;;;;;5079460;28;20024;-76
2023/07/18 09:04:35;;;;;;;6.85;2.97;;;24.60;42.30;;;;;;5075189;28;20389;-75
2023/07/18 09:07:02;;;;;;;7.38;3.35;;;24.70;42.90;;;;;;5074264;28;20033;-75
2023/07/18 09:09:28;;;;;;;6.53;2.90;;;24.80;42.90;;;;;;5074137;28;20032;-75
2023/07/18 09:11:57;;;;;;;3.83;2.67;;;24.80;43.30;;;;;;5073952;28;20449;-78
2023/07/18 09:14:31;;;;;;;5.35;3.13;;;24.90;42.60;;;;;;5074358;28;20028;-77
2023/07/18 09:17:00;;;;;;;7.10;2.75;;;25.10;42.10;;;;;;5072326;28;20028;-78
2023/07/18 09:19:39;;;;;;;3.83;2.70;;;25.20;42.00;;;;;;5073712;28;20048;-77
2023/07/18 09:22:07;;;;;;;4.80;2.80;;;25.20;42.10;;;;;;5073524;28;20044;-75
2023/07/18 09:24:35;;;;;;;4.93;2.63;;;25.20;42.00;;;;;;5073740;28;20104;-74
2023/07/18 09:27:05;;;;;;;6.90;3.08;;;25.30;40.80;;;;;;5073625;28;20024;-74
2023/07/18 09:29:31;;;;;;;4.75;2.70;;;25.50;40.70;;;;;;5073505;28;20020;-75
2023/07/18 09:31:57;;;;;;;6.32;2.83;;;25.70;40.50;;;;;;5073447;28;20380;-75
2023/07/18 09:34:25;;;;;;;7.93;3.15;;;25.60;40.50;;;;;;5073390;28;20027;-74
2023/07/18 09:36:59;;;;;;;7.90;2.63;;;25.60;40.60;;;;;;5073324;28;20033;-74
2023/07/18 09:39:26;;;;;;;6.70;3.10;;;25.70;39.60;;;;;;5073360;28;20095;-74
2023/07/18 09:41:52;;;;;;;7.82;3.03;;;25.70;40.20;;;;;;5073260;28;20496;-74
2023/07/18 09:44:25;;;;;;;5.25;2.83;;;25.90;40.30;;;;;;5073379;28;20039;-75
2023/07/18 09:46:51;;;;;;;7.10;3.45;;;25.90;39.10;;;;;;5073123;28;20097;-76
2023/07/18 09:49:18;;;;;;;5.32;3.10;;;25.70;39.60;;;;;;5072972;28;20469;-75
2023/07/18 09:52:04;;;;;;;8.00;3.17;;;25.20;41.00;;;;;;5072863;28;20464;-75
2023/07/18 09:54:33;;;;;;;4.82;3.00;;;25.10;40.40;;;;;;5072584;28;20020;-76
2023/07/18 09:57:02;;;;;;;8.43;2.97;;;25.00;40.30;;;;;;5072838;28;20496;-75
2023/07/18 09:59:29;;;;;;;4.43;3.08;;;24.90;40.90;;;;;;5072287;28;20089;-74
2023/07/18 10:01:55;;;;;;;4.90;3.05;;;24.90;40.70;;;;;;5072376;28;20013;-75
2023/07/18 10:04:22;;;;;;;6.43;3.38;;;25.00;41.20;;;;;;5069656;28;20104;-75
2023/07/18 10:06:49;;;;;;;3.63;2.63;;;24.90;41.80;;;;;;5072302;28;20044;-74
2023/07/18 10:09:16;;;;;;;4.75;2.65;;;24.90;41.90;;;;;;5072440;28;20055;-74
2023/07/18 10:11:57;;;;;;;6.85;3.17;;;25.00;42.10;;;;;;5068053;28;20449;-75
2023/07/18 10:14:27;;;;;;;3.55;2.70;;;25.20;42.00;;;;;;5068539;28;20526;-74
2023/07/18 10:16:59;;;;;;;4.68;2.97;;;25.40;41.60;;;;;;5072157;28;20453;-74
2023/07/18 10:19:25;;;;;;;11.05;3.50;;;25.60;41.60;;;;;;5070084;28;20016;-75
2023/07/18 10:21:56;;;;;;;4.18;2.72;;;25.70;41.30;;;;;;5071964;28;20101;-77
2023/07/18 10:24:28;;;;;;;4.95;2.67;;;25.70;41.00;;;;;;5070353;28;20019;-75
2023/07/18 10:27:06;;;;;;;6.00;3.55;;;25.80;41.20;;;;;;5077200;28;20021;-78
2023/07/18 10:29:32;;;;;;;6.90;2.92;;;26.10;41.70;;;;;;5070882;28;20012;-77
2023/07/18 10:32:00;;;;;;;7.00;3.08;;;26.50;40.30;;;;;;5072490;28;20020;-76
2023/07/18 10:34:26;;;;;;;6.13;3.13;;;26.80;39.00;;;;;;5072350;28;20468;-77
2023/07/18 10:37:00;;;;;;;5.38;3.08;;;27.20;38.70;;;;;;5072144;28;20024;-75
2023/07/18 10:39:49;;;;;;;7.43;3.10;;;27.40;36.40;;;;;;5070154;28;20058;-77
2023/07/18 10:42:25;;;;;;;4.25;3.00;;;27.30;36.30;;;;;;5071206;28;20063;-75
2023/07/18 10:44:58;;;;;;;6.85;3.67;;;27.20;36.70;;;;;;5069266;28;20025;-76
2023/07/18 10:47:25;;;;;;;6.45;3.25;;;26.80;36.50;;;;;;5069577;28;20016;-75
2023/07/18 10:49:50;;;;;;;9.00;3.67;;;26.50;38.30;;;;;;5070195;28;20070;-75
2023/07/18 10:52:17;;;;;;;6.10;3.17;;;26.10;39.00;;;;;;5071368;28;20426;-77
2023/07/18 10:54:45;;;;;;;6.25;3.65;;;25.90;39.00;;;;;;5069048;28;20024;-75
2023/07/18 10:57:11;;;;;;;7.18;3.25;;;25.70;40.00;;;;;;5071229;28;20029;-76
2023/07/18 10:59:36;;;;;;;7.05;3.30;;;25.40;42.20;;;;;;5071511;28;20025;-75
2023/07/18 11:02:03;;;;;;;5.45;3.85;;;25.20;42.70;;;;;;5071394;28;20453;-77
2023/07/18 11:04:29;;;;;;;5.68;3.00;;;25.00;43.20;;;;;;5070393;28;20042;-75
2023/07/18 11:06:55;;;;;;;6.72;3.63;;;24.80;44.50;;;;;;5075452;28;20493;-77
2023/07/18 11:09:22;;;;;;;6.70;3.50;;;24.60;44.60;;;;;;5075601;28;20019;-77
2023/07/18 11:11:48;;;;;;;6.55;3.50;;;24.60;44.90;;;;;;5075681;28;20360;-75
2023/07/18 11:14:13;;;;;;;6.57;3.40;;;24.40;46.70;;;;;;5075304;28;20453;-74
2023/07/18 11:16:39;;;;;;;6.70;3.40;;;24.30;46.90;;;;;;5075129;28;20056;-77
2023/07/18 11:19:10;;;;;;;5.28;3.03;;;24.20;48.80;;;;;;5075409;28;20502;-76
2023/07/18 11:21:37;;;;;;;6.70;3.42;;;23.90;49.60;;;;;;5074941;28;20132;-77
2023/07/18 11:24:03;;;;;;;11.32;4.28;;;23.70;49.70;;;;;;5072807;28;20100;-77
2023/07/18 11:26:29;;;;;;;5.35;3.40;;;23.60;49.90;;;;;;5075596;28;20048;-75
2023/07/18 11:28:57;;;;;;;7.05;3.65;;;23.50;50.30;;;;;;5075470;28;20067;-74
2023/07/18 11:31:29;;;;;;;11.93;2.83;;;23.50;49.70;;;;;;5072544;28;20103;-74
2023/07/18 11:33:58;;;;;;;8.20;3.60;;;23.40;49.80;;;;;;5075341;28;20032;-74
2023/07/18 11:36:31;;;;;;;5.78;2.78;;;23.40;50.00;;;;;;5072641;28;20479;-76
2023/07/18 11:39:06;;;;;;;7.18;3.65;;;23.40;50.80;;;;;;5075218;28;21720;-75
2023/07/18 11:41:35;;;;;;;;;;;23.40;55.50;;;;;;5075360;28;20081;-74
2023/07/18 11:44:01;;;;;;;6.68;3.33;;;23.40;56.40;;;;;;5074863;28;19955;-75
2023/07/18 11:46:44;;;;;;;8.88;3.67;;;23.30;57.30;;;;;;5074926;28;20103;-75
2023/07/18 11:49:17;;;;;;;5.03;3.65;;;23.30;58.10;;;;;;5076318;28;20451;-75
2023/07/18 11:51:43;;;;;;;11.38;4.40;;;23.40;59.50;;;;;;5071195;28;20365;-74
2023/07/18 11:54:09;;;;;;;9.02;5.05;;;23.40;61.30;;;;;;5074690;28;20033;-75
2023/07/18 11:56:35;;;;;;;14.82;4.63;;;23.20;62.20;;;;;;5074661;28;20112;-77
2023/07/18 11:59:01;;;;;;;8.02;4.28;;;23.10;64.30;;;;;;5074884;28;20029;-76
2023/07/18 12:01:27;;;;;;;7.13;4.47;;;23.00;63.50;;;;;;5074692;28;20118;-74
2023/07/18 12:03:54;;;;;;;9.85;4.90;;;23.10;63.10;;;;;;5073758;28;20024;-75
2023/07/18 12:06:21;;;;;;;7.30;4.95;;;23.10;65.00;;;;;;5074577;28;20021;-74
2023/07/18 12:08:46;;;;;;;9.95;5.05;;;23.00;65.40;;;;;;5074610;28;20012;-74
2023/07/18 12:11:12;;;;;;;9.23;4.88;;;23.00;62.90;;;;;;5074513;28;20103;-76
2023/07/18 12:13:39;;;;;;;12.48;4.65;;;23.00;67.40;;;;;;5074382;28;20015;-74
2023/07/18 12:16:05;;;;;;;12.38;4.80;;;22.80;64.90;;;;;;5074294;28;20035;-76
2023/07/18 12:18:31;;;;;;;10.90;5.20;;;22.60;63.70;;;;;;5073241;28;20028;-76
2023/07/18 12:20:57;;;;;;;13.07;5.82;;;22.40;65.80;;;;;;5073094;28;20045;-75
2023/07/18 12:23:23;;;;;;;9.77;5.25;;;22.40;67.80;;;;;;5074597;28;20025;-76
2023/07/18 12:25:49;;;;;;;10.60;5.22;;;22.40;65.60;;;;;;5074179;28;20025;-76
2023/07/18 12:28:15;;;;;;;7.93;4.72;;;22.70;59.60;;;;;;5074289;28;20786;-75
2023/07/18 12:30:41;;;;;;;8.27;4.90;;;23.00;58.00;;;;;;5074276;28;20020;-75
2023/07/18 12:33:07;;;;;;;8.73;4.70;;;23.40;55.40;;;;;;5072682;28;20369;-76
2023/07/18 12:35:33;;;;;;;10.23;4.88;;;23.70;53.90;;;;;;5073775;28;20078;-74
2023/07/18 12:37:59;;;;;;;7.65;4.60;;;23.90;53.70;;;;;;5072591;28;20044;-75
2023/07/18 12:40:24;;;;;;;8.75;4.82;;;24.10;50.10;;;;;;5074121;28;20023;-76
2023/07/18 12:42:50;;;;;;;7.22;4.38;;;24.20;50.90;;;;;;5074020;28;20385;-77